createdAt,value
2022-11-10T00:00:01.421Z,99.58
2022-11-10T00:02:48.660Z,99.70
2022-11-10T00:05:38.273Z,100.00
2022-11-10T00:08:24.952Z,99.91
2022-11-10T00:11:12.862Z,99.68
2022-11-10T00:14:19.146Z,99.81
2022-11-10T00:17:05.749Z,99.95
2022-11-10T00:19:52.514Z,99.76
2022-11-10T00:22:40.199Z,99.33
2022-11-10T00:25:27.570Z,99.14
2022-11-10T00:28:15.631Z,99.61
2022-11-10T00:31:06.924Z,99.74
2022-11-10T00:33:53.389Z,100.00
2022-11-10T00:36:40.011Z,100.00
2022-11-10T00:39:26.716Z,100.00
2022-11-10T00:42:13.502Z,100.00
2022-11-10T00:45:01.459Z,100.00
2022-11-10T00:47:47.735Z,100.00
2022-11-10T00:50:34.412Z,100.00
2022-11-10T00:53:21.317Z,99.69
2022-11-10T00:56:07.943Z,99.48
2022-11-10T00:58:54.514Z,99.65
2022-11-10T01:01:42.448Z,99.45
2022-11-10T01:04:28.757Z,98.58
2022-11-10T01:07:15.651Z,98.63
2022-11-10T01:10:02.331Z,98.96
2022-11-10T01:12:48.928Z,98.46
2022-11-10T01:15:35.592Z,99.06
2022-11-10T01:18:23.510Z,99.07
2022-11-10T01:21:10.955Z,99.88
2022-11-10T01:23:58.385Z,100.00
2022-11-10T01:26:45.146Z,100.00
2022-11-10T01:29:31.793Z,99.97
2022-11-10T01:32:18.597Z,100.00
2022-11-10T01:35:07.868Z,100.00
2022-11-10T01:37:54.779Z,100.00
2022-11-10T01:40:41.180Z,99.42
2022-11-10T01:43:29.594Z,99.16
2022-11-10T01:46:16.355Z,99.31
2022-11-10T01:49:04.718Z,99.03
2022-11-10T01:51:55.766Z,99.35
2022-11-10T01:54:47.634Z,98.94
2022-11-10T01:57:34.638Z,99.35
2022-11-10T02:00:21.938Z,99.01
2022-11-10T02:03:13.256Z,99.02
2022-11-10T02:06:00.178Z,99.13
2022-11-10T02:08:48.441Z,98.53
2022-11-10T02:11:36.853Z,98.64
2022-11-10T02:14:23.635Z,98.59
2022-11-10T02:17:10.715Z,97.88
2022-11-10T02:20:04.732Z,98.15
2022-11-10T02:22:52.881Z,97.51
2022-11-10T02:25:39.454Z,97.94
2022-11-10T02:28:27.573Z,97.56
2022-11-10T02:31:14.469Z,97.31
2022-11-10T02:34:00.966Z,97.36
2022-11-10T02:39:49.864Z,96.43
2022-11-10T02:42:36.186Z,96.46
2022-11-10T02:45:22.820Z,96.78
2022-11-10T02:48:09.797Z,96.21
2022-11-10T02:50:56.793Z,95.67
2022-11-10T02:53:43.863Z,96.45
2022-11-10T02:56:31.722Z,95.87
2022-11-10T02:59:18.101Z,95.15
2022-11-10T03:02:04.761Z,95.33
2022-11-10T03:04:51.316Z,97.00
2022-11-10T03:07:38.069Z,95.62
2022-11-10T03:10:25.147Z,95.50
2022-11-10T03:13:14.299Z,96.30
2022-11-10T03:16:00.896Z,96.73
2022-11-10T03:18:47.418Z,96.27
2022-11-10T03:21:34.087Z,96.76
2022-11-10T03:24:20.648Z,95.59
2022-11-10T03:27:07.670Z,95.50
2022-11-10T03:29:55.541Z,95.64
2022-11-10T03:32:42.395Z,95.62
2022-11-10T03:35:29.198Z,94.73
2022-11-10T03:38:16.040Z,93.96
2022-11-10T03:41:19.862Z,93.94
2022-11-10T03:44:07.842Z,94.92
2022-11-10T03:46:55.871Z,94.42
2022-11-10T03:49:42.555Z,95.35
2022-11-10T03:52:28.985Z,93.89
2022-11-10T03:55:18.597Z,94.08
2022-11-10T03:58:06.062Z,93.57
2022-11-10T04:00:54.745Z,93.81
2022-11-10T04:03:43.134Z,95.94
2022-11-10T04:06:49.741Z,95.74
2022-11-10T04:09:36.637Z,94.93
2022-11-10T04:12:40.513Z,95.21
2022-11-10T04:15:45.768Z,94.13
2022-11-10T04:18:32.234Z,94.26
2022-11-10T04:21:20.233Z,94.70
2022-11-10T04:24:07.223Z,94.18
2022-11-10T04:26:53.926Z,94.07
2022-11-10T04:29:41.023Z,94.71
2022-11-10T04:32:27.622Z,94.22
2022-11-10T04:35:14.175Z,95.38
2022-11-10T04:38:02.724Z,95.68
2022-11-10T04:40:49.695Z,94.88
2022-11-10T04:43:36.380Z,93.85
2022-11-10T04:46:25.117Z,94.11
2022-11-10T04:49:12.109Z,93.74
2022-11-10T04:51:59.059Z,94.52
2022-11-10T04:54:47.145Z,92.94
2022-11-10T04:57:33.726Z,92.96
2022-11-10T05:00:21.031Z,94.04
2022-11-10T05:03:10.739Z,95.08
2022-11-10T05:05:57.006Z,95.87
2022-11-10T05:08:44.854Z,95.43
2022-11-10T05:11:32.652Z,95.63
2022-11-10T05:14:19.383Z,94.82
2022-11-10T05:17:05.874Z,94.66
2022-11-10T05:19:52.899Z,93.64
2022-11-10T05:22:39.780Z,94.71
2022-11-10T05:25:26.217Z,93.11
2022-11-10T05:28:14.111Z,92.83
2022-11-10T05:31:01.154Z,92.13
2022-11-10T05:33:47.728Z,92.83
2022-11-10T05:36:34.301Z,93.48
2022-11-10T05:39:20.834Z,92.76
2022-11-10T05:42:07.964Z,93.30
2022-11-10T05:44:55.597Z,92.97
2022-11-10T05:47:43.309Z,93.10
2022-11-10T05:50:30.208Z,92.25
2022-11-10T05:53:16.711Z,93.35
2022-11-10T05:56:03.185Z,93.95
2022-11-10T05:58:49.438Z,92.72
2022-11-10T06:01:37.559Z,93.17
2022-11-10T06:04:24.236Z,92.17
2022-11-10T06:07:11.923Z,92.37
2022-11-10T06:09:58.685Z,92.96
2022-11-10T06:12:46.643Z,93.21
2022-11-10T06:15:34.266Z,93.43
2022-11-10T06:18:22.293Z,94.77
2022-11-10T06:21:08.652Z,96.28
2022-11-10T06:23:55.270Z,95.23
2022-11-10T06:26:42.087Z,95.13
2022-11-10T06:29:28.549Z,94.69
2022-11-10T06:32:15.251Z,95.39
2022-11-10T06:35:03.226Z,94.31
2022-11-10T06:38:00.683Z,94.05
2022-11-10T06:40:47.598Z,94.22
2022-11-10T06:43:33.996Z,95.00
2022-11-10T06:46:20.200Z,95.07
2022-11-10T06:49:07.352Z,95.15
2022-11-10T06:51:55.026Z,95.56
2022-11-10T06:54:41.679Z,96.21
2022-11-10T06:57:28.661Z,95.66
2022-11-10T07:00:17.962Z,97.04
2022-11-10T07:03:06.567Z,96.43
2022-11-10T07:05:53.042Z,96.28
2022-11-10T07:08:40.918Z,95.60
2022-11-10T07:11:27.257Z,95.52
2022-11-10T07:14:13.921Z,95.88
2022-11-10T07:17:00.906Z,95.63
2022-11-10T07:19:47.479Z,96.41
2022-11-10T07:22:34.365Z,97.14
2022-11-10T07:25:22.427Z,96.72
2022-11-10T07:28:10.615Z,96.94
2022-11-10T07:30:57.000Z,97.55
2022-11-10T07:33:44.093Z,96.69
2022-11-10T07:36:30.749Z,97.16
2022-11-10T07:39:17.390Z,96.99
2022-11-10T07:42:05.511Z,97.80
2022-11-10T07:44:52.316Z,97.21
2022-11-10T07:47:38.690Z,97.27
2022-11-10T07:50:25.367Z,96.75
2022-11-10T07:53:13.491Z,97.51
2022-11-10T07:56:00.362Z,97.20
2022-11-10T07:58:49.520Z,97.38
2022-11-10T08:01:36.010Z,97.61
2022-11-10T08:04:22.778Z,97.43
2022-11-10T08:07:09.603Z,97.89
2022-11-10T08:09:56.155Z,97.55
2022-11-10T08:12:42.603Z,97.65
2022-11-10T08:15:31.875Z,97.65
2022-11-10T08:18:20.692Z,98.79
2022-11-10T08:21:07.684Z,97.99
2022-11-10T08:23:54.840Z,98.92
2022-11-10T08:26:42.162Z,99.12
2022-11-10T08:29:28.950Z,98.32
2022-11-10T08:32:17.119Z,98.55
2022-11-10T08:35:03.867Z,98.75
2022-11-10T08:37:50.238Z,98.47
2022-11-10T08:40:37.035Z,97.67
2022-11-10T08:43:23.890Z,97.61
2022-11-10T08:46:10.886Z,97.91
2022-11-10T08:48:58.852Z,97.43
2022-11-10T08:51:45.689Z,97.42
2022-11-10T08:54:32.030Z,97.53
2022-11-10T08:57:18.669Z,97.41
2022-11-10T09:00:06.598Z,96.83
2022-11-10T09:02:53.195Z,96.77
2022-11-10T09:05:41.911Z,96.25
2022-11-10T09:08:28.527Z,96.32
2022-11-10T09:11:15.171Z,96.17
2022-11-10T09:14:01.795Z,96.51
2022-11-10T09:16:48.240Z,96.13
2022-11-10T09:19:34.939Z,96.31
2022-11-10T09:22:22.787Z,96.14
2022-11-10T09:25:10.227Z,95.77
2022-11-10T09:27:56.875Z,95.40
2022-11-10T09:30:46.308Z,94.85
2022-11-10T09:33:32.878Z,94.12
2022-11-10T09:36:19.512Z,94.59
2022-11-10T09:39:08.372Z,93.66
2022-11-10T09:41:54.896Z,93.42
2022-11-10T09:44:51.356Z,93.80
2022-11-10T09:47:56.751Z,92.27
2022-11-10T09:50:50.450Z,90.10
2022-11-10T09:53:41.537Z,90.55
2022-11-10T09:56:33.794Z,88.45
2022-11-10T09:59:26.656Z,88.42
2022-11-10T10:02:23.742Z,87.33
2022-11-10T10:05:46.444Z,86.33
2022-11-10T10:08:45.566Z,87.14
2022-11-10T10:11:44.799Z,86.85
2022-11-10T10:14:52.663Z,87.36
2022-11-10T10:17:45.907Z,85.41
2022-11-10T10:20:41.904Z,84.43
2022-11-10T10:24:07.085Z,84.79
2022-11-10T10:26:49.855Z,83.48
2022-11-10T10:29:40.911Z,83.03
2022-11-10T10:32:28.202Z,82.64
2022-11-10T10:35:16.359Z,83.40
2022-11-10T10:38:05.308Z,82.28
2022-11-10T10:40:53.981Z,81.52
2022-11-10T10:43:43.456Z,81.66
2022-11-10T10:46:35.775Z,80.57
2022-11-10T10:49:29.009Z,80.65
2022-11-10T10:52:17.437Z,79.68
2022-11-10T10:55:09.687Z,79.68
2022-11-10T10:58:01.179Z,79.94
2022-11-10T11:00:51.725Z,81.78
2022-11-10T11:03:43.888Z,81.18
2022-11-10T11:06:32.157Z,80.11
2022-11-10T11:09:23.854Z,81.11
2022-11-10T11:12:14.178Z,81.87
2022-11-10T11:15:15.126Z,80.90
2022-11-10T11:18:11.885Z,80.84
2022-11-10T11:21:03.608Z,79.33
2022-11-10T11:24:07.313Z,79.67
2022-11-10T11:27:00.538Z,78.95
2022-11-10T11:30:02.751Z,77.49
2022-11-10T11:33:21.390Z,77.76
2022-11-10T11:36:21.815Z,79.04
2022-11-10T11:39:20.490Z,78.23
2022-11-10T11:42:17.606Z,77.82
2022-11-10T11:45:21.562Z,79.20
2022-11-10T11:48:34.592Z,79.19
2022-11-10T11:51:29.545Z,77.71
2022-11-10T11:54:38.198Z,77.10
2022-11-10T11:57:38.804Z,76.86
2022-11-10T12:00:26.918Z,76.81
2022-11-10T12:03:35.443Z,78.13
2022-11-10T12:06:34.294Z,79.42
2022-11-10T12:09:31.325Z,79.25
2022-11-10T12:12:38.419Z,79.87
2022-11-10T12:15:34.549Z,77.21
2022-11-10T12:18:31.453Z,77.15
2022-11-10T12:21:38.102Z,77.79
2022-11-10T12:24:38.398Z,78.13
2022-11-10T12:27:28.695Z,78.33
2022-11-10T12:30:17.449Z,76.63
2022-11-10T12:33:08.568Z,76.33
2022-11-10T12:35:56.273Z,76.15
2022-11-10T12:38:59.546Z,75.30
2022-11-10T12:41:49.724Z,75.27
2022-11-10T12:44:40.514Z,76.86
2022-11-10T12:47:31.503Z,75.20
2022-11-10T12:50:29.604Z,74.66
2022-11-10T12:53:22.957Z,76.42
2022-11-10T12:56:18.856Z,75.86
2022-11-10T12:59:26.308Z,75.83
2022-11-10T13:02:24.748Z,75.71
2022-11-10T13:05:29.177Z,75.42
2022-11-10T13:08:27.929Z,74.96
2022-11-10T13:11:28.829Z,74.63
2022-11-10T13:14:24.623Z,72.98
2022-11-10T13:17:49.691Z,73.02
2022-11-10T13:20:52.129Z,70.90
2022-11-10T13:24:18.245Z,71.58
2022-11-10T13:27:11.294Z,71.90
2022-11-10T13:29:59.683Z,73.00
2022-11-10T13:32:46.034Z,74.02
2022-11-10T13:35:55.467Z,72.00
2022-11-10T13:38:44.323Z,71.73
2022-11-10T13:41:34.716Z,70.87
2022-11-10T13:44:26.275Z,70.45
2022-11-10T13:47:37.142Z,71.80
2022-11-10T13:50:35.172Z,72.09
2022-11-10T13:53:33.868Z,71.69
2022-11-10T13:56:36.650Z,71.17
2022-11-10T13:59:27.299Z,68.68
2022-11-10T14:02:56.214Z,69.98
2022-11-10T14:06:09.103Z,70.75
2022-11-10T14:09:00.691Z,71.50
2022-11-10T14:11:50.687Z,73.53
2022-11-10T14:14:50.343Z,72.48
2022-11-10T14:17:42.621Z,72.42
2022-11-10T14:20:34.732Z,72.85
2022-11-10T14:23:26.994Z,72.24
2022-11-10T14:26:23.163Z,72.27
2022-11-10T14:29:29.755Z,73.39
2022-11-10T14:32:22.255Z,71.41
2022-11-10T14:35:20.567Z,70.50
2022-11-10T14:38:20.407Z,70.48
2022-11-10T14:41:08.261Z,70.42
2022-11-10T14:44:03.337Z,72.04
2022-11-10T14:46:49.734Z,73.60
2022-11-10T14:49:37.738Z,71.22
2022-11-10T14:52:24.243Z,71.21
2022-11-10T14:55:17.233Z,72.79
2022-11-10T14:58:11.730Z,72.42
2022-11-10T15:00:58.065Z,72.45
2022-11-10T15:03:45.015Z,71.89
2022-11-10T15:06:33.653Z,71.71
2022-11-10T15:09:28.327Z,72.07
2022-11-10T15:12:29.769Z,72.09
2022-11-10T15:15:20.963Z,72.35
2022-11-10T15:18:08.286Z,73.74
2022-11-10T15:21:02.102Z,75.96
2022-11-10T15:23:57.910Z,76.62
2022-11-10T15:26:44.590Z,78.36
2022-11-10T15:29:31.941Z,78.07
2022-11-10T15:32:21.141Z,78.78
2022-11-10T15:35:09.788Z,79.92
2022-11-10T15:38:01.365Z,80.78
2022-11-10T15:40:51.346Z,80.86
2022-11-10T15:43:37.927Z,81.30
2022-11-10T15:46:27.293Z,81.20
2022-11-10T15:49:20.819Z,81.53
2022-11-10T15:52:14.791Z,81.79
2022-11-10T15:55:01.568Z,82.00
2022-11-10T15:57:49.686Z,82.58
2022-11-10T16:00:35.910Z,82.88
2022-11-10T16:03:24.434Z,81.66
2022-11-10T16:06:13.626Z,81.58
2022-11-10T16:09:00.588Z,81.66
2022-11-10T16:11:47.364Z,80.21
2022-11-10T16:14:35.367Z,80.49
2022-11-10T16:17:22.112Z,81.46
2022-11-10T16:20:14.922Z,81.74
2022-11-10T16:23:01.335Z,81.74
2022-11-10T16:25:50.403Z,82.49
2022-11-10T16:28:36.655Z,83.53
2022-11-10T16:31:24.547Z,84.13
2022-11-10T16:34:13.743Z,83.86
2022-11-10T16:39:43.559Z,84.91
2022-11-10T16:42:29.741Z,84.49
2022-11-10T16:45:18.285Z,85.14
2022-11-10T16:48:08.136Z,84.93
2022-11-10T16:50:56.683Z,85.16
2022-11-10T16:53:43.305Z,85.67
2022-11-10T16:56:31.052Z,85.69
2022-11-10T16:59:18.008Z,85.97
2022-11-10T17:02:04.810Z,86.60
2022-11-10T17:04:51.353Z,86.99
2022-11-10T17:07:39.339Z,87.51
2022-11-10T17:10:26.092Z,87.49
2022-11-10T17:13:14.433Z,87.74
2022-11-10T17:16:06.225Z,87.89
2022-11-10T17:18:52.977Z,87.67
2022-11-10T17:21:40.053Z,87.69
2022-11-10T17:24:26.828Z,88.16
2022-11-10T17:27:13.433Z,87.89
2022-11-10T17:30:01.445Z,88.04
2022-11-10T17:33:05.510Z,88.50
2022-11-10T17:35:54.489Z,87.74
2022-11-10T17:38:42.007Z,88.08
2022-11-10T17:41:29.049Z,88.30
2022-11-10T17:44:17.947Z,88.57
2022-11-10T17:47:05.769Z,88.16
2022-11-10T17:49:52.690Z,88.26
2022-11-10T17:52:39.313Z,88.33
2022-11-10T17:55:33.801Z,89.06
2022-11-10T17:58:20.599Z,88.43
2022-11-10T18:01:12.175Z,89.13
2022-11-10T18:04:00.446Z,89.08
2022-11-10T18:06:47.314Z,88.81
2022-11-10T18:09:33.964Z,89.11
2022-11-10T18:12:25.282Z,88.60
2022-11-10T18:15:15.309Z,89.29
2022-11-10T18:18:01.650Z,88.64
2022-11-10T18:20:50.161Z,89.22
2022-11-10T18:23:36.922Z,89.21
2022-11-10T18:26:23.275Z,89.05
2022-11-10T18:29:09.919Z,89.04
2022-11-10T18:31:56.463Z,89.02
2022-11-10T18:34:45.639Z,88.48
2022-11-10T18:37:39.068Z,88.83
2022-11-10T18:40:26.692Z,88.72
2022-11-10T18:43:13.188Z,89.12
2022-11-10T18:45:59.740Z,88.44
2022-11-10T18:48:47.011Z,89.06
2022-11-10T18:51:33.532Z,88.29
2022-11-10T18:54:21.524Z,88.67
2022-11-10T18:57:08.374Z,89.43
2022-11-10T18:59:54.866Z,89.26
2022-11-10T19:02:43.115Z,88.54
2022-11-10T19:05:30.111Z,88.84
2022-11-10T19:08:17.242Z,89.41
2022-11-10T19:11:08.798Z,88.83
2022-11-10T19:13:55.595Z,90.11
2022-11-10T19:16:42.027Z,90.49
2022-11-10T19:19:28.669Z,90.30
2022-11-10T19:22:15.084Z,89.40
2022-11-10T19:25:08.299Z,89.47
2022-11-10T19:27:57.619Z,89.08
2022-11-10T19:30:43.822Z,89.48
2022-11-10T19:33:31.952Z,91.06
2022-11-10T19:36:21.024Z,90.27
2022-11-10T19:39:07.580Z,90.01
2022-11-10T19:41:54.048Z,90.35
2022-11-10T19:44:42.077Z,89.75
2022-11-10T19:47:28.566Z,90.21
2022-11-10T19:50:15.328Z,90.04
2022-11-10T19:53:02.054Z,89.48
2022-11-10T19:55:48.973Z,89.02
2022-11-10T19:58:36.992Z,89.64
2022-11-10T20:01:25.006Z,90.58
2022-11-10T20:04:12.628Z,90.60
2022-11-10T20:07:12.980Z,89.48
2022-11-10T20:10:00.278Z,90.76
2022-11-10T20:12:47.062Z,90.76
2022-11-10T20:15:33.677Z,90.04
2022-11-10T20:18:21.818Z,89.86
2022-11-10T20:21:10.331Z,89.56
2022-11-10T20:23:57.875Z,89.70
2022-11-10T20:26:44.219Z,90.45
2022-11-10T20:29:31.066Z,90.63
2022-11-10T20:32:17.655Z,89.69
2022-11-10T20:35:06.004Z,89.96
2022-11-10T20:37:52.534Z,89.03
2022-11-10T20:40:44.545Z,89.86
2022-11-10T20:43:34.490Z,89.85
2022-11-10T20:46:48.441Z,89.62
2022-11-10T20:49:29.444Z,88.49
2022-11-10T20:52:18.039Z,88.49
2022-11-10T20:55:05.481Z,88.89
2022-11-10T20:57:52.188Z,88.74
2022-11-10T21:00:38.818Z,89.40
2022-11-10T21:03:25.803Z,89.11
2022-11-10T21:06:12.764Z,89.14
2022-11-10T21:09:00.682Z,88.98
2022-11-10T21:12:05.124Z,89.05
2022-11-10T21:14:51.566Z,89.15
2022-11-10T21:17:43.851Z,89.12
2022-11-10T21:20:33.799Z,88.51
2022-11-10T21:23:20.496Z,89.52
2022-11-10T21:26:09.210Z,89.04
2022-11-10T21:28:56.105Z,88.72
2022-11-10T21:31:42.927Z,88.84
2022-11-10T21:34:29.475Z,88.36
2022-11-10T21:37:16.273Z,88.16
2022-11-10T21:40:02.754Z,88.27
2022-11-10T21:42:55.230Z,88.74
2022-11-10T21:45:42.026Z,89.82
2022-11-10T21:48:28.590Z,89.95
2022-11-10T21:51:15.537Z,89.95
2022-11-10T21:54:01.911Z,89.81
2022-11-10T21:56:48.972Z,88.86
2022-11-10T21:59:36.776Z,89.46
2022-11-10T22:02:23.552Z,89.38
2022-11-10T22:05:10.302Z,90.02
2022-11-10T22:07:56.842Z,90.41
2022-11-10T22:11:01.066Z,90.79
2022-11-10T22:14:05.487Z,90.03
2022-11-10T22:17:11.566Z,89.70
2022-11-10T22:19:58.254Z,90.13
2022-11-10T22:22:45.311Z,90.16
2022-11-10T22:25:32.172Z,89.89
2022-11-10T22:28:21.320Z,90.60
2022-11-10T22:31:09.578Z,90.46
2022-11-10T22:33:57.525Z,90.26
2022-11-10T22:36:44.035Z,90.48
2022-11-10T22:39:44.392Z,89.90
2022-11-10T22:42:48.614Z,90.22
2022-11-10T22:45:35.467Z,90.57
2022-11-10T22:48:28.382Z,90.03
2022-11-10T22:51:16.326Z,89.32
2022-11-10T22:54:04.049Z,89.11
2022-11-10T22:56:51.556Z,88.82
2022-11-10T22:59:38.436Z,89.07
2022-11-10T23:02:25.104Z,89.60
2022-11-10T23:05:11.665Z,89.15
2022-11-10T23:07:59.266Z,89.17
2022-11-10T23:10:45.846Z,89.80
2022-11-10T23:13:34.062Z,89.76
2022-11-10T23:16:22.583Z,89.21
2022-11-10T23:19:11.569Z,88.77
2022-11-10T23:21:57.761Z,89.33
2022-11-10T23:24:45.788Z,88.63
2022-11-10T23:27:34.165Z,88.37
2022-11-10T23:30:20.438Z,89.00
2022-11-10T23:33:06.911Z,89.00
2022-11-10T23:35:53.742Z,89.68
2022-11-10T23:38:41.172Z,90.43
2022-11-10T23:41:29.184Z,90.69
2022-11-10T23:44:15.827Z,91.01
2022-11-10T23:47:02.334Z,89.87
2022-11-10T23:49:48.959Z,90.43
2022-11-10T23:52:35.621Z,90.36
2022-11-10T23:55:22.727Z,89.94
2022-11-10T23:58:11.038Z,89.20
